Time;durP1;ratioP1;P1;durP2;ratioP2;P2;SDS_P1;SDS_P2;PMS_P1;PMS_P2;Temp;Humidity;BMP_temperature;BMP_pressure;BME280_temperature;BME280_humidity;BME280_pressure;Samples;Min_cycle;Max_cycle;Signal;HPM_P1;HPM_P2
2023/09/30 00:01:44;;;;;;;0.10;0.10;;;;;;;15.64;63.46;101675.31;7361391;19;20628;-61
2023/09/30 00:04:09;;;;;;;0.10;0.10;;;;;;;15.73;63.31;101690.88;7363149;19;20495;-61
2023/09/30 00:06:35;;;;;;;0.10;0.10;;;;;;;15.71;62.63;101692.69;7365458;19;20108;-61
2023/09/30 00:09:01;;;;;;;0.10;0.10;;;;;;;15.68;63.01;101687.50;7363544;19;20090;-60
2023/09/30 00:11:26;;;;;;;0.10;0.10;;;;;;;15.65;63.12;101695.47;7364936;19;20010;-61
2023/09/30 00:13:51;;;;;;;0.10;0.10;;;;;;;15.63;63.80;101689.38;7358528;19;20010;-60
2023/09/30 00:16:18;;;;;;;0.00;0.00;;;;;;;15.61;63.83;101688.53;7358947;19;20042;-61
2023/09/30 00:18:44;;;;;;;0.10;0.10;;;;;;;15.58;63.88;101684.22;7358930;19;20007;-61
2023/09/30 00:21:10;;;;;;;0.00;0.00;;;;;;;15.56;64.23;101687.78;7361004;19;20018;-61
2023/09/30 00:23:35;;;;;;;0.10;0.10;;;;;;;15.54;64.04;101685.19;7366215;19;20039;-61
2023/09/30 00:26:01;;;;;;;0.10;0.10;;;;;;;15.54;64.02;101702.78;7339044;19;20878;-60
2023/09/30 00:28:26;;;;;;;0.10;0.10;;;;;;;15.52;63.94;101704.59;7365656;19;20010;-62
2023/09/30 00:30:52;;;;;;;0.10;0.10;;;;;;;15.49;64.00;101702.03;7343843;19;20534;-61
2023/09/30 00:33:17;;;;;;;0.00;0.00;;;;;;;15.14;63.64;101643.31;7368106;19;20030;-61
2023/09/30 00:35:43;;;;;;;0.10;0.10;;;;;;;15.32;63.22;101678.81;7361347;19;20082;-60
2023/09/30 00:38:09;;;;;;;0.08;0.08;;;;;;;15.41;63.11;101698.72;7362243;19;20081;-60
2023/09/30 00:40:35;;;;;;;0.00;0.00;;;;;;;15.26;63.34;101679.84;7364896;19;20018;-60
2023/09/30 00:43:01;;;;;;;0.10;0.10;;;;;;;15.30;63.46;101706.91;7369042;19;21112;-61
2023/09/30 00:45:27;;;;;;;0.00;0.00;;;;;;;15.27;63.98;101710.50;7365367;19;20013;-61
2023/09/30 00:47:53;;;;;;;0.10;0.10;;;;;;;15.20;63.53;101716.81;7328966;19;20028;-61
2023/09/30 00:50:20;;;;;;;0.10;0.10;;;;;;;15.18;63.38;101707.25;7363516;19;20459;-61
2023/09/30 00:52:48;;;;;;;0.10;0.10;;;;;;;15.19;64.12;101709.81;7361979;19;20458;-61
2023/09/30 00:55:15;;;;;;;0.10;0.10;;;;;;;15.16;63.73;101715.19;7362598;19;20011;-61
2023/09/30 00:57:41;;;;;;;0.10;0.10;;;;;;;15.06;64.35;101697.91;7360496;19;20018;-61
2023/09/30 01:00:11;;;;;;;0.10;0.10;;;;;;;15.11;64.35;101696.03;7356013;19;20015;-61
2023/09/30 01:02:38;;;;;;;0.05;0.05;;;;;;;15.08;64.78;101679.44;7359533;19;20025;-61
2023/09/30 01:05:04;;;;;;;0.00;0.00;;;;;;;15.08;64.65;101680.31;7363846;19;20029;-61
2023/09/30 01:07:30;;;;;;;0.10;0.10;;;;;;;15.07;64.38;101678.59;7363354;19;20725;-61
2023/09/30 01:09:55;;;;;;;0.10;0.10;;;;;;;15.05;64.41;101683.91;7362563;19;20013;-61
2023/09/30 01:12:21;;;;;;;0.10;0.10;;;;;;;14.99;64.41;101676.13;7359876;19;20042;-61
2023/09/30 01:14:46;;;;;;;0.10;0.10;;;;;;;15.01;64.06;101678.75;7362909;19;20030;-61
2023/09/30 01:17:13;;;;;;;0.10;0.10;;;;;;;14.92;64.32;101666.69;7362397;19;20002;-61
2023/09/30 01:19:39;;;;;;;0.07;0.07;;;;;;;14.95;64.15;101690.28;7357085;19;20538;-61
2023/09/30 01:22:05;;;;;;;0.10;0.10;;;;;;;14.90;64.71;101709.69;7364209;19;20732;-61
2023/09/30 01:24:30;;;;;;;0.10;0.10;;;;;;;14.89;64.98;101711.47;7362594;19;20014;-61
2023/09/30 01:26:57;;;;;;;0.10;0.10;;;;;;;14.65;65.25;101677.88;7362897;19;20022;-62
2023/09/30 01:29:25;;;;;;;0.00;0.00;;;;;;;14.72;65.78;101701.34;7363766;19;20006;-61
2023/09/30 01:31:50;;;;;;;0.05;0.05;;;;;;;14.84;65.96;101725.63;7361789;19;20056;-61
2023/09/30 01:34:16;;;;;;;0.10;0.10;;;;;;;14.81;65.45;101736.22;7363639;19;20018;-61
2023/09/30 01:36:42;;;;;;;0.10;0.10;;;;;;;14.76;65.33;101725.81;7361800;19;20010;-61
2023/09/30 01:39:10;;;;;;;0.17;0.17;;;;;;;14.69;65.67;101714.56;7362070;19;20046;-61
2023/09/30 01:41:36;;;;;;;0.03;0.03;;;;;;;14.68;65.48;101723.34;7363461;19;20051;-61
2023/09/30 01:44:02;;;;;;;0.10;0.10;;;;;;;14.64;65.44;101724.31;7357349;19;20872;-61
2023/09/30 01:46:27;;;;;;;0.10;0.10;;;;;;;14.61;65.23;101721.78;7363244;19;20022;-61
2023/09/30 01:48:53;;;;;;;0.00;0.00;;;;;;;14.58;65.48;101716.59;7362298;19;20006;-61
2023/09/30 01:51:18;;;;;;;0.10;0.10;;;;;;;14.54;65.63;101721.03;7330122;19;20002;-61
2023/09/30 01:53:43;;;;;;;0.10;0.10;;;;;;;14.53;65.31;101707.94;7359618;19;20014;-61
2023/09/30 01:56:09;;;;;;;0.10;0.10;;;;;;;14.51;65.48;101715.00;7362731;19;20905;-61
2023/09/30 01:58:34;;;;;;;0.00;0.00;;;;;;;14.47;65.29;101708.06;7353006;19;21008;-61
2023/09/30 02:01:03;;;;;;;0.10;0.10;;;;;;;14.45;65.47;101696.72;7363364;19;20013;-61
2023/09/30 02:03:29;;;;;;;0.10;0.10;;;;;;;14.41;65.61;101692.44;7365873;19;20014;-60
2023/09/30 02:05:55;;;;;;;0.10;0.10;;;;;;;14.36;65.51;101683.78;7355290;19;20678;-61
2023/09/30 02:08:20;;;;;;;0.10;0.10;;;;;;;14.35;65.07;101703.09;7364522;19;20379;-60
2023/09/30 02:10:45;;;;;;;0.10;0.10;;;;;;;14.25;65.00;101690.16;7363073;19;20064;-61
2023/09/30 02:13:11;;;;;;;0.10;0.10;;;;;;;14.28;64.81;101700.56;7361098;19;20006;-61
2023/09/30 02:15:41;;;;;;;0.00;0.00;;;;;;;14.25;64.85;101692.78;7357886;19;20039;-61
2023/09/30 02:18:06;;;;;;;0.10;0.10;;;;;;;14.21;65.15;101696.34;7361570;19;20006;-60
2023/09/30 02:20:32;;;;;;;0.10;0.10;;;;;;;14.18;65.27;101693.78;7363726;19;20010;-61
2023/09/30 02:22:58;;;;;;;0.00;0.00;;;;;;;14.17;65.52;101684.19;7369157;19;20122;-61
2023/09/30 02:25:24;;;;;;;0.10;0.10;;;;;;;14.13;65.44;101672.00;7358986;19;21024;-62
2023/09/30 02:27:50;;;;;;;0.10;0.10;;;;;;;13.96;65.63;101647.88;7358745;19;20491;-61
2023/09/30 02:30:16;;;;;;;0.10;0.10;;;;;;;14.09;65.07;101680.88;7364506;19;20060;-61
2023/09/30 02:32:42;;;;;;;0.10;0.10;;;;;;;14.08;65.09;101694.03;7358601;19;20002;-61
2023/09/30 02:35:11;;;;;;;0.10;0.10;;;;;;;14.05;65.14;101687.09;7363858;19;20025;-61
2023/09/30 02:37:38;;;;;;;0.10;0.10;;;;;;;14.02;65.59;101685.38;7359337;19;20010;-60
2023/09/30 02:40:05;;;;;;;0.10;0.10;;;;;;;14.00;65.29;101686.31;7370672;19;20034;-61
2023/09/30 02:42:31;;;;;;;0.10;0.10;;;;;;;14.00;65.95;101686.31;7358328;19;20074;-61
2023/09/30 02:44:58;;;;;;;0.10;0.10;;;;;;;13.97;65.62;101687.25;7367874;19;20082;-60
2023/09/30 02:47:24;;;;;;;0.10;0.10;;;;;;;13.97;65.57;101684.59;7363920;19;20045;-61
2023/09/30 02:49:49;;;;;;;0.10;0.10;;;;;;;13.98;65.65;101682.84;7361488;19;20075;-61
2023/09/30 02:52:15;;;;;;;0.00;0.00;;;;;;;13.98;65.83;101678.44;7361481;19;20728;-61
2023/09/30 02:54:40;;;;;;;0.10;0.10;;;;;;;13.85;65.80;101655.13;7358077;19;20032;-60
2023/09/30 02:57:09;;;;;;;0.10;0.10;;;;;;;13.96;65.51;101668.91;7354697;19;20412;-61
2023/09/30 02:59:36;;;;;;;0.00;0.00;;;;;;;13.96;65.97;101668.91;7364049;19;20022;-62
2023/09/30 03:02:01;;;;;;;0.10;0.10;;;;;;;13.96;65.75;101655.78;7370880;19;20013;-61
2023/09/30 03:04:28;;;;;;;0.10;0.10;;;;;;;13.95;65.83;101646.16;7365221;19;20014;-61
2023/09/30 03:06:56;;;;;;;0.00;0.00;;;;;;;13.92;65.66;101647.06;7368992;19;20007;-62
2023/09/30 03:09:22;;;;;;;0.10;0.10;;;;;;;13.84;65.63;101632.38;7368544;19;20011;-61
2023/09/30 03:11:48;;;;;;;0.03;0.03;;;;;;;13.93;65.74;101638.31;7371520;19;20022;-61
2023/09/30 03:14:13;;;;;;;0.10;0.10;;;;;;;13.92;66.01;101640.97;7368250;19;20596;-61
2023/09/30 03:16:43;;;;;;;0.10;0.10;;;;;;;13.84;66.48;101642.88;7360813;19;20390;-60
2023/09/30 03:19:08;;;;;;;0.10;0.10;;;;;;;13.89;66.27;101638.41;7336007;19;20017;-61
2023/09/30 03:21:37;;;;;;;0.00;0.00;;;;;;;13.91;66.36;101634.00;7368268;19;20622;-61
2023/09/30 03:24:07;;;;;;;0.08;0.08;;;;;;;13.89;66.31;101628.78;7364747;19;20375;-61
2023/09/30 03:26:33;;;;;;;0.00;0.00;;;;;;;13.88;66.53;101634.91;7369153;19;20014;-61
2023/09/30 03:28:59;;;;;;;0.10;0.10;;;;;;;13.89;66.69;101625.25;7369588;19;20014;-60
2023/09/30 03:31:25;;;;;;;0.10;0.10;;;;;;;13.88;66.45;101613.03;7364111;19;20018;-61
2023/09/30 03:33:53;;;;;;;0.10;0.10;;;;;;;13.88;66.63;101619.16;7376448;19;20011;-61
2023/09/30 03:36:24;;;;;;;0.10;0.10;;;;;;;13.90;66.77;101614.75;7369064;19;20006;-61
2023/09/30 03:38:50;;;;;;;0.10;0.10;;;;;;;13.91;66.73;101603.34;7364148;19;20034;-61
2023/09/30 03:41:15;;;;;;;0.00;0.00;;;;;;;13.91;66.83;101592.84;7368277;19;20010;-60
2023/09/30 03:43:41;;;;;;;0.10;0.10;;;;;;;13.82;67.01;101576.44;7368193;19;20475;-61
2023/09/30 03:46:09;;;;;;;0.10;0.10;;;;;;;13.97;66.96;101599.72;7361879;19;20022;-61
2023/09/30 03:48:39;;;;;;;0.10;0.10;;;;;;;13.96;66.91;101606.72;7367121;19;20003;-61
2023/09/30 03:51:14;;;;;;;0.10;0.10;;;;;;;13.99;66.98;101605.81;7353056;19;20490;-60
2023/09/30 03:53:45;;;;;;;0.10;0.10;;;;;;;13.88;66.52;101592.03;7369192;19;20014;-60
2023/09/30 03:56:11;;;;;;;0.10;0.10;;;;;;;13.99;66.82;101611.06;7365228;19;20010;-60
2023/09/30 03:58:41;;;;;;;0.10;0.10;;;;;;;13.93;66.74;101595.44;7359078;19;20364;-61
2023/09/30 04:01:23;;;;;;;0.10;0.10;;;;;;;14.02;66.77;101609.22;7370138;19;20513;-61
2023/09/30 04:03:49;;;;;;;0.10;0.10;;;;;;;14.04;66.81;101619.72;7362844;19;20018;-61
2023/09/30 04:06:14;;;;;;;0.10;0.10;;;;;;;14.06;67.36;101622.28;7370776;19;20017;-61
2023/09/30 04:08:40;;;;;;;0.10;0.10;;;;;;;14.06;67.31;101615.28;7365782;19;20027;-61
2023/09/30 04:11:06;;;;;;;0.05;0.05;;;;;;;14.07;66.89;101621.38;7367906;19;20085;-61
2023/09/30 04:13:31;;;;;;;0.10;0.10;;;;;;;14.06;66.98;101617.91;7360756;19;20022;-61
2023/09/30 04:16:00;;;;;;;0.10;0.10;;;;;;;14.08;67.16;101616.09;7367342;19;20038;-61
2023/09/30 04:18:26;;;;;;;0.10;0.10;;;;;;;14.07;66.61;101613.50;7366629;19;20011;-61
2023/09/30 04:20:55;;;;;;;0.00;0.00;;;;;;;14.07;66.91;101608.25;7369456;19;20475;-61
2023/09/30 04:23:21;;;;;;;0.10;0.10;;;;;;;14.05;67.05;101604.81;7354767;19;20010;-61
2023/09/30 04:25:47;;;;;;;0.10;0.10;;;;;;;14.06;66.93;101602.13;7366443;19;20014;-61
2023/09/30 04:28:13;;;;;;;0.10;0.10;;;;;;;14.06;67.00;101602.13;7367462;19;20017;-60
2023/09/30 04:30:39;;;;;;;0.00;0.00;;;;;;;14.06;67.15;101607.41;7365103;19;20014;-61
2023/09/30 04:33:05;;;;;;;0.00;0.00;;;;;;;14.04;66.96;101609.19;7368277;19;20035;-61
2023/09/30 04:35:30;;;;;;;0.10;0.10;;;;;;;14.03;67.09;101597.81;7355087;19;21072;-61
2023/09/30 04:37:57;;;;;;;0.10;0.10;;;;;;;14.02;67.04;101596.09;7370754;19;20007;-60
2023/09/30 04:40:22;;;;;;;0.10;0.10;;;;;;;14.01;67.09;101583.00;7350711;19;20502;-61
2023/09/30 04:42:48;;;;;;;0.10;0.10;;;;;;;14.00;66.86;101578.66;7367645;19;20107;-61
2023/09/30 04:45:16;;;;;;;0.10;0.10;;;;;;;13.99;66.88;101576.94;7363146;19;20485;-61
2023/09/30 04:47:44;;;;;;;0.10;0.10;;;;;;;13.97;66.85;101576.94;7367794;19;20407;-61
2023/09/30 04:50:11;;;;;;;0.10;0.10;;;;;;;13.94;66.88;101569.16;7363717;19;20638;-61
2023/09/30 04:52:38;;;;;;;0.10;0.10;;;;;;;13.94;67.14;101557.78;7366346;19;20014;-61
2023/09/30 04:55:04;;;;;;;0.10;0.10;;;;;;;13.95;67.18;101552.50;7369765;19;20014;-61
2023/09/30 04:57:30;;;;;;;0.10;0.10;;;;;;;13.95;67.01;101563.00;7362284;19;20014;-61
2023/09/30 04:59:55;;;;;;;0.10;0.10;;;;;;;13.93;67.37;101554.28;7364628;19;20025;-60
2023/09/30 05:02:21;;;;;;;0.10;0.10;;;;;;;13.92;67.25;101551.69;7366413;19;20009;-61
2023/09/30 05:04:46;;;;;;;0.10;0.10;;;;;;;13.87;67.19;101537.81;7364920;19;20014;-61
2023/09/30 05:07:13;;;;;;;0.10;0.10;;;;;;;13.92;67.19;101556.94;7365654;19;20014;-61
2023/09/30 05:09:38;;;;;;;0.10;0.10;;;;;;;13.88;67.17;101545.63;7364958;19;20024;-61
2023/09/30 05:12:04;;;;;;;0.10;0.10;;;;;;;13.73;66.90;101523.22;7357071;19;20489;-60
2023/09/30 05:14:31;;;;;;;0.10;0.10;;;;;;;13.73;67.05;101531.09;7370408;19;20029;-61
2023/09/30 05:16:56;;;;;;;0.00;0.00;;;;;;;13.87;67.49;101550.94;7362405;19;20025;-61
2023/09/30 05:19:22;;;;;;;0.10;0.10;;;;;;;13.89;67.54;101567.50;7366124;19;20006;-60
2023/09/30 05:21:48;;;;;;;0.10;0.10;;;;;;;13.80;67.49;101546.72;7356822;19;20043;-61
2023/09/30 05:24:14;;;;;;;0.10;0.10;;;;;;;13.86;67.61;101557.09;7371533;19;20006;-61
2023/09/30 05:26:39;;;;;;;0.03;0.03;;;;;;;13.86;67.32;101567.59;7375067;19;20143;-61
2023/09/30 05:29:05;;;;;;;0.10;0.10;;;;;;;13.84;67.15;101567.63;7368178;19;20010;-61
2023/09/30 05:31:31;;;;;;;0.10;0.10;;;;;;;13.71;67.33;101539.91;7359301;19;20581;-61
2023/09/30 05:33:57;;;;;;;0.10;0.10;;;;;;;13.77;67.15;101543.25;7365893;19;20058;-60
2023/09/30 05:36:22;;;;;;;0.10;0.10;;;;;;;13.84;67.18;101548.38;7366719;19;20082;-61
2023/09/30 05:38:48;;;;;;;0.10;0.10;;;;;;;13.84;67.88;101553.63;7372297;19;20746;-61
2023/09/30 05:41:16;;;;;;;0.10;0.10;;;;;;;13.85;67.77;101558.00;7363814;19;20051;-60
2023/09/30 05:43:43;;;;;;;0.10;0.10;;;;;;;13.81;68.11;101558.97;7365513;19;20011;-61
2023/09/30 05:46:09;;;;;;;0.10;0.10;;;;;;;13.82;68.01;101551.03;7367949;19;20025;-60
2023/09/30 05:48:34;;;;;;;0.10;0.10;;;;;;;13.83;68.20;101546.66;7357884;19;20465;-60
2023/09/30 05:50:59;;;;;;;0.10;0.10;;;;;;;13.83;68.48;101557.16;7359506;19;20014;-60
2023/09/30 05:53:25;;;;;;;0.10;0.10;;;;;;;13.83;68.47;101554.53;7364468;19;20470;-60
2023/09/30 05:55:50;;;;;;;0.10;0.10;;;;;;;13.83;68.61;101557.16;7372893;19;20006;-61
2023/09/30 05:58:16;;;;;;;0.10;0.10;;;;;;;13.84;68.69;101556.25;7354677;19;20482;-61
2023/09/30 06:00:42;;;;;;;0.03;0.03;;;;;;;13.85;68.60;101571.13;7363894;19;20010;-61
2023/09/30 06:03:08;;;;;;;0.00;0.00;;;;;;;13.86;68.83;101578.09;7364474;19;20017;-61
2023/09/30 06:05:34;;;;;;;0.10;0.10;;;;;;;13.87;68.95;101572.81;7362213;19;20130;-61
2023/09/30 06:08:03;;;;;;;0.10;0.10;;;;;;;13.90;68.37;101574.50;7366523;19;20082;-61
2023/09/30 06:10:29;;;;;;;0.10;0.10;;;;;;;13.88;69.09;101576.28;7362719;19;20010;-61
2023/09/30 06:12:56;;;;;;;0.10;0.10;;;;;;;13.90;69.19;101580.63;7356183;19;20105;-62
2023/09/30 06:15:28;;;;;;;0.00;0.00;;;;;;;13.90;69.24;101572.75;7366936;19;20764;-61
2023/09/30 06:17:55;;;;;;;0.10;0.10;;;;;;;13.93;68.85;101563.91;7363927;19;20033;-61
2023/09/30 06:20:22;;;;;;;0.10;0.10;;;;;;;13.87;68.85;101561.44;7361542;19;20458;-61
2023/09/30 06:22:51;;;;;;;0.10;0.10;;;;;;;13.88;68.87;101560.53;7355633;19;20490;-60
2023/09/30 06:25:18;;;;;;;0.10;0.10;;;;;;;13.94;68.98;101569.16;7371072;19;20007;-61
2023/09/30 06:27:44;;;;;;;0.00;0.00;;;;;;;13.95;69.21;101568.25;7370612;19;20021;-61
2023/09/30 06:30:10;;;;;;;0.10;0.10;;;;;;;13.97;69.12;101563.81;7369317;19;20018;-61
2023/09/30 06:32:36;;;;;;;0.10;0.10;;;;;;;13.96;69.29;101553.34;7363194;19;20018;-61
2023/09/30 06:35:06;;;;;;;0.10;0.10;;;;;;;13.97;69.04;101552.44;7366811;19;20337;-61
2023/09/30 06:37:32;;;;;;;0.10;0.10;;;;;;;13.99;69.45;101559.41;7370449;19;20018;-60
2023/09/30 06:39:57;;;;;;;0.10;0.10;;;;;;;13.99;68.95;101545.41;7370205;19;20010;-61
2023/09/30 06:42:24;;;;;;;0.10;0.10;;;;;;;13.95;69.28;101513.09;7371832;19;20013;-61
2023/09/30 06:44:49;;;;;;;0.10;0.10;;;;;;;14.02;68.88;101524.31;7369889;19;20014;-61
2023/09/30 06:47:16;;;;;;;0.10;0.10;;;;;;;14.04;69.38;101525.16;7380205;19;20588;-61
2023/09/30 06:49:41;;;;;;;0.10;0.10;;;;;;;14.05;69.27;101526.88;7380423;19;20793;-61
2023/09/30 06:52:07;;;;;;;0.10;0.10;;;;;;;14.03;69.12;101520.78;7363839;19;20014;-61
2023/09/30 06:54:32;;;;;;;0.10;0.10;;;;;;;13.96;69.07;101504.31;7337447;19;20058;-61
2023/09/30 06:56:58;;;;;;;0.10;0.10;;;;;;;14.02;69.03;101511.19;7371396;19;20014;-60
2023/09/30 06:59:25;;;;;;;0.10;0.10;;;;;;;14.11;68.96;101526.72;7367201;19;20011;-61
2023/09/30 07:01:50;;;;;;;0.10;0.10;;;;;;;14.10;69.07;101519.75;7367370;19;20010;-61
2023/09/30 07:04:16;;;;;;;0.10;0.10;;;;;;;14.15;69.29;101523.13;7369341;19;20017;-61
2023/09/30 07:06:41;;;;;;;0.10;0.10;;;;;;;14.15;69.40;101507.38;7368222;19;20010;-61
2023/09/30 07:09:07;;;;;;;0.10;0.10;;;;;;;14.17;69.37;101508.19;7368395;19;20017;-61
2023/09/30 07:11:33;;;;;;;0.10;0.10;;;;;;;14.20;69.41;101509.88;7362385;19;20007;-61
2023/09/30 07:13:58;;;;;;;0.10;0.10;;;;;;;14.20;69.23;101502.88;7360586;19;20578;-61
2023/09/30 07:16:24;;;;;;;0.10;0.10;;;;;;;14.23;69.09;101509.78;7365851;19;20014;-61
2023/09/30 07:18:50;;;;;;;0.03;0.03;;;;;;;14.24;69.44;101501.91;7372766;19;20014;-60
2023/09/30 07:21:15;;;;;;;0.10;0.10;;;;;;;14.25;69.15;101493.09;7361676;19;20025;-61
2023/09/30 07:23:41;;;;;;;0.10;0.10;;;;;;;14.28;69.51;101484.28;7368908;19;20349;-61
2023/09/30 07:26:06;;;;;;;0.10;0.10;;;;;;;14.30;69.46;101486.88;7367201;19;20106;-61
2023/09/30 07:28:33;;;;;;;0.10;0.10;;;;;;;14.27;69.31;101496.53;7370614;19;20006;-61
2023/09/30 07:30:58;;;;;;;0.10;0.10;;;;;;;14.34;69.41;101491.13;7352091;19;20027;-61
2023/09/30 07:33:24;;;;;;;0.10;0.10;;;;;;;14.32;69.54;101487.69;7363208;19;20006;-61
2023/09/30 07:35:49;;;;;;;0.10;0.10;;;;;;;14.26;69.11;101473.81;7365016;19;20014;-61
2023/09/30 07:38:15;;;;;;;0.10;0.10;;;;;;;14.35;69.47;101479.75;7367688;19;20014;-61
2023/09/30 07:40:41;;;;;;;0.10;0.10;;;;;;;14.43;69.08;101490.91;7362740;19;20490;-61
2023/09/30 07:43:06;;;;;;;0.08;0.08;;;;;;;14.44;69.06;101497.88;7370435;19;20010;-61
2023/09/30 07:45:32;;;;;;;0.10;0.10;;;;;;;14.47;69.44;101497.81;7360122;19;20021;-61
2023/09/30 07:47:58;;;;;;;0.10;0.10;;;;;;;14.48;69.14;101504.81;7367423;19;20395;-61
2023/09/30 07:50:24;;;;;;;0.10;0.10;;;;;;;14.50;69.00;101503.03;7370281;19;20014;-62
2023/09/30 07:52:49;;;;;;;0.10;0.10;;;;;;;14.52;69.26;101498.59;7368089;19;20045;-61
2023/09/30 07:55:15;;;;;;;0.10;0.10;;;;;;;14.52;68.99;101491.56;7357409;19;20018;-61
2023/09/30 07:57:42;;;;;;;0.10;0.10;;;;;;;14.54;68.98;101492.38;7365856;19;20014;-61
2023/09/30 08:00:14;;;;;;;0.10;0.10;;;;;;;14.57;69.50;101501.94;7363987;19;20018;-61
2023/09/30 08:02:40;;;;;;;0.10;0.10;;;;;;;14.59;69.01;101492.25;7366768;19;20006;-61
2023/09/30 08:05:06;;;;;;;0.10;0.10;;;;;;;14.61;69.31;101489.59;7365845;19;20020;-61
2023/09/30 08:07:32;;;;;;;0.10;0.10;;;;;;;14.53;69.17;101477.50;7362527;19;20367;-61
2023/09/30 08:09:58;;;;;;;0.10;0.10;;;;;;;14.64;69.52;101500.00;7356239;19;20022;-61
2023/09/30 08:12:23;;;;;;;0.10;0.10;;;;;;;14.61;69.25;101479.94;7359652;19;20022;-61
2023/09/30 08:14:51;;;;;;;0.10;0.10;;;;;;;14.67;69.53;101485.03;7359489;19;20455;-60
2023/09/30 08:17:17;;;;;;;0.10;0.10;;;;;;;14.69;69.56;101477.94;7365662;19;20776;-60
2023/09/30 08:19:43;;;;;;;0.10;0.10;;;;;;;14.71;69.15;101486.69;7361192;19;20014;-61
2023/09/30 08:22:09;;;;;;;0.10;0.10;;;;;;;14.64;69.27;101464.06;7366011;19;20010;-61
2023/09/30 08:24:35;;;;;;;0.10;0.10;;;;;;;14.77;69.21;101477.75;7363706;19;20118;-61
2023/09/30 08:27:01;;;;;;;0.10;0.10;;;;;;;14.80;69.72;101469.78;7366401;19;20013;-61
2023/09/30 08:29:26;;;;;;;0.10;0.10;;;;;;;14.82;69.61;101473.22;7358289;19;20070;-61
2023/09/30 08:31:51;;;;;;;0.10;0.10;;;;;;;14.72;69.17;101440.22;7371230;19;20011;-61
2023/09/30 08:34:19;;;;;;;0.10;0.10;;;;;;;14.88;69.40;101464.31;7367290;19;20369;-61
2023/09/30 08:36:45;;;;;;;0.10;0.10;;;;;;;14.88;69.55;101465.16;7364029;19;20014;-61
2023/09/30 08:39:10;;;;;;;0.10;0.10;;;;;;;14.92;69.37;101466.81;7365759;19;20026;-61
2023/09/30 08:41:36;;;;;;;0.10;0.10;;;;;;;14.81;69.41;101442.59;7361068;19;20027;-61
2023/09/30 08:44:03;;;;;;;0.10;0.10;;;;;;;14.99;69.35;101454.34;7363718;19;20015;-60
2023/09/30 08:46:33;;;;;;;0.10;0.10;;;;;;;15.06;69.42;101461.16;7353627;19;20014;-62
2023/09/30 08:49:03;;;;;;;0.10;0.10;;;;;;;15.02;69.30;101443.75;7365049;19;20010;-61
2023/09/30 08:51:29;;;;;;;0.10;0.10;;;;;;;15.11;69.20;101458.41;7359611;19;20090;-61
2023/09/30 08:53:56;;;;;;;0.10;0.10;;;;;;;15.15;69.34;101452.97;7364768;19;20441;-61
2023/09/30 08:56:26;;;;;;;0.10;0.10;;;;;;;15.21;69.25;101449.31;7353833;19;20070;-61
2023/09/30 08:58:54;;;;;;;0.10;0.10;;;;;;;15.21;69.24;101444.91;7365028;19;20635;-61
2023/09/30 09:01:20;;;;;;;0.10;0.10;;;;;;;15.25;68.78;101451.78;7366297;19;20002;-60
2023/09/30 09:03:52;;;;;;;0.10;0.10;;;;;;;15.31;68.78;101454.25;7362395;19;20467;-61
2023/09/30 09:06:18;;;;;;;0.10;0.10;;;;;;;15.27;68.73;101443.88;7362385;19;20028;-61
2023/09/30 09:08:43;;;;;;;0.10;0.10;;;;;;;15.36;68.84;101458.50;7360974;19;20042;-60
2023/09/30 09:11:09;;;;;;;0.10;0.10;;;;;;;15.40;68.69;101460.13;7363644;19;20616;-61
2023/09/30 09:13:50;;;;;;;0.10;0.10;;;;;;;15.44;68.39;101452.09;7358356;19;20015;-61
2023/09/30 09:16:20;;;;;;;0.10;0.10;;;;;;;15.40;69.24;101455.72;7360482;19;20022;-61
2023/09/30 09:18:47;;;;;;;0.10;0.10;;;;;;;15.28;69.00;101430.66;7364522;19;20021;-61
2023/09/30 09:21:20;;;;;;;0.10;0.10;;;;;;;15.45;69.03;101458.22;7362339;19;20018;-60
2023/09/30 09:23:50;;;;;;;0.10;0.10;;;;;;;15.45;69.23;101455.59;7362076;19;20021;-61
2023/09/30 09:26:31;;;;;;;0.10;0.10;;;;;;;15.47;68.71;101456.41;7364828;19;20479;-60
2023/09/30 09:28:58;;;;;;;0.10;0.10;;;;;;;15.45;69.26;101463.47;7361797;19;20010;-61
2023/09/30 09:31:36;;;;;;;0.10;0.10;;;;;;;15.41;69.35;101448.69;7357258;19;20014;-61
2023/09/30 09:34:03;;;;;;;0.10;0.10;;;;;;;15.46;69.89;101457.31;7360391;19;20018;-61
2023/09/30 09:36:41;;;;;;;0.10;0.10;;;;;;;15.50;69.14;101456.31;7363532;19;20013;-61
2023/09/30 09:39:07;;;;;;;0.10;0.10;;;;;;;15.47;69.86;101451.16;7353803;19;20010;-61
2023/09/30 09:41:32;;;;;;;0.20;0.20;;;;;;;15.49;69.84;101438.81;7362934;19;20017;-60
2023/09/30 09:43:59;;;;;;;0.10;0.10;;;;;;;15.49;69.81;101436.16;7358945;19;20388;-61
2023/09/30 09:46:27;;;;;;;0.10;0.10;;;;;;;15.45;70.17;101416.09;7357953;19;20018;-61
2023/09/30 09:48:53;;;;;;;;;;;;;;;15.55;68.04;101423.66;7362051;19;20017;-61
2023/09/30 09:51:21;;;;;;;0.10;0.10;;;;;;;15.29;69.52;101377.13;7358374;19;20361;-61
2023/09/30 09:53:49;;;;;;;0.10;0.10;;;;;;;15.51;70.57;101406.28;7362084;19;20074;-61
2023/09/30 09:56:16;;;;;;;0.10;0.10;;;;;;;15.44;70.63;101404.72;7362560;19;20019;-61
2023/09/30 09:58:43;;;;;;;0.10;0.10;;;;;;;15.42;70.65;101392.53;7356496;19;20039;-61
2023/09/30 10:01:09;;;;;;;0.10;0.10;;;;;;;15.46;70.70;101395.03;7364483;19;20609;-61
2023/09/30 10:03:36;;;;;;;0.10;0.10;;;;;;;15.46;70.87;101386.25;7358188;19;20706;-60
2023/09/30 10:06:02;;;;;;;0.10;0.10;;;;;;;15.40;71.31;101370.66;7364596;19;20501;-61
2023/09/30 10:08:36;;;;;;;0.10;0.10;;;;;;;15.48;71.16;101390.56;7334791;19;20010;-61
2023/09/30 10:11:02;;;;;;;0.10;0.10;;;;;;;15.48;71.36;101389.69;7354794;19;20730;-60
2023/09/30 10:14:03;;;;;;;0.10;0.10;;;;;;;15.53;70.48;101385.16;7356293;19;20010;-61
2023/09/30 10:16:34;;;;;;;0.10;0.10;;;;;;;15.53;70.84;101382.53;7360294;19;20038;-61
2023/09/30 10:19:11;;;;;;;0.10;0.10;;;;;;;15.56;71.00;101371.88;7366244;19;20501;-60
2023/09/30 10:21:36;;;;;;;0.10;0.10;;;;;;;15.52;71.57;101359.75;7367683;19;20010;-61
2023/09/30 10:24:23;;;;;;;0.10;0.10;;;;;;;15.59;70.12;101355.97;7362845;19;20035;-60
2023/09/30 10:27:07;;;;;;;;;;;;;;;15.61;69.38;101343.63;7357185;19;20014;-61
2023/09/30 10:29:42;;;;;;;0.10;0.10;;;;;;;15.60;70.58;101330.53;7359681;19;19926;-61
2023/09/30 10:32:08;;;;;;;0.10;0.10;;;;;;;15.55;71.37;101323.63;7364142;19;20021;-61
2023/09/30 10:34:33;;;;;;;0.10;0.10;;;;;;;15.54;71.41;101323.69;7362852;19;20011;-60
2023/09/30 10:37:22;;;;;;;0.10;0.10;;;;;;;15.57;70.74;101326.22;7335513;19;20141;-60
2023/09/30 10:39:58;;;;;;;0.10;0.10;;;;;;;15.54;71.69;101335.06;7362971;19;20025;-61
2023/09/30 10:42:54;;;;;;;0.10;0.10;;;;;;;15.55;70.71;101328.91;7363745;19;20601;-60
2023/09/30 10:45:38;;;;;;;0.10;0.10;;;;;;;15.55;70.81;101333.31;7364579;19;20375;-61
2023/09/30 10:48:26;;;;;;;0.10;0.10;;;;;;;15.55;71.17;101328.03;7361993;19;20373;-61
2023/09/30 10:50:53;;;;;;;0.10;0.10;;;;;;;15.50;72.52;101312.38;7363193;19;20078;-60
2023/09/30 10:53:18;;;;;;;0.10;0.10;;;;;;;15.49;72.33;101312.44;7371001;19;20018;-61
2023/09/30 10:55:54;;;;;;;0.10;0.10;;;;;;;15.55;72.35;101312.25;7362008;19;20035;-60
2023/09/30 10:58:19;;;;;;;0.10;0.10;;;;;;;15.54;72.15;101315.78;7367298;19;20018;-61
2023/09/30 11:00:54;;;;;;;0.13;0.13;;;;;;;15.58;72.18;101312.16;7364729;19;20023;-61
2023/09/30 11:03:21;;;;;;;0.10;0.10;;;;;;;15.56;72.55;101314.84;7363219;19;20015;-60
2023/09/30 11:05:53;;;;;;;0.10;0.10;;;;;;;15.58;72.71;101301.63;7356853;19;20015;-61
2023/09/30 11:08:22;;;;;;;0.10;0.10;;;;;;;15.59;72.80;101298.06;7366586;19;20047;-61
2023/09/30 11:10:52;;;;;;;0.10;0.10;;;;;;;15.61;72.80;101296.22;7362640;19;20018;-60
2023/09/30 11:13:18;;;;;;;0.10;0.10;;;;;;;15.60;72.54;101297.16;7360524;19;20043;-60
2023/09/30 11:15:47;;;;;;;0.10;0.10;;;;;;;15.63;72.37;101293.56;7357061;19;20582;-59
2023/09/30 11:18:17;;;;;;;0.00;0.00;;;;;;;15.61;72.57;101287.47;7364058;19;20015;-60
2023/09/30 11:20:44;;;;;;;0.10;0.10;;;;;;;15.56;73.45;101282.38;7356536;19;20116;-60
2023/09/30 11:23:10;;;;;;;0.10;0.10;;;;;;;15.55;72.58;101276.25;7367649;19;20018;-59
2023/09/30 11:25:39;;;;;;;0.10;0.10;;;;;;;15.54;72.23;101284.19;7365786;19;20018;-60
2023/09/30 11:28:18;;;;;;;0.10;0.10;;;;;;;15.53;71.78;101299.13;7368318;19;20486;-59